AAL96T KLAX-RJTT
Flight info
| Callsign | AAL96T |
|---|---|
| Flight time | N/A |
| Altitude | 30000 |
| Route | SUMMR2 MCKEY DCT LIBBO DCT BRINY DCT BOARS DCT AMAKR DCT BOXER DCT FULMR DCT FASEL DCT 52N140W/N0498F320 56N150W DCT CUDDA DCT ALUFF/N0502F340 DCT POOFF DCT HEDMI M523 ISMAV/N0495F360 M523 IPGUD Y800 ESNIP Y810 AKRIT Y807 POLIX |
| Aircraft | B77W/H-SDE1E2E3FGHIJ2J3J4J5M1RWXY/LB1D1 |
Departure
| Time | 2026-04-20 04:20 |
|---|---|
| Airport | Los Angeles International Airport (KLAX) |
Arrival
| Time | N/A |
|---|---|
| Airport | Tokyo Haneda International Airport (RJTT) |
| Time | Latitude | Longitude | Altitude | Speed | Heading |
|---|---|---|---|---|---|
| 2026-04-20 03:05 | 33.94155 | -118.40942 | 130 ft | 0 kts | 263° |
| 2026-04-20 03:55 | 33.94155 | -118.40943 | 130 ft | 0 kts | 263° |
| 2026-04-20 03:56 | 33.94155 | -118.40944 | 130 ft | 0 kts | 262° |
| 2026-04-20 03:57 | 33.94155 | -118.40945 | 130 ft | 0 kts | 262° |
| 2026-04-20 03:58 | 33.94156 | -118.40945 | 130 ft | 0 kts | 262° |
| 2026-04-20 03:58 | 33.94157 | -118.40930 | 130 ft | 2 kts | 266° |
| 2026-04-20 03:58 | 33.94158 | -118.40901 | 130 ft | 2 kts | 263° |
| 2026-04-20 03:59 | 33.94164 | -118.40884 | 130 ft | 3 kts | 232° |
| 2026-04-20 03:59 | 33.94177 | -118.40873 | 129 ft | 2 kts | 199° |
| 2026-04-20 03:59 | 33.94194 | -118.40868 | 129 ft | 0 kts | 184° |
| 2026-04-20 03:59 | 33.94193 | -118.40868 | 129 ft | 0 kts | 185° |
| 2026-04-20 04:00 | 33.94190 | -118.40869 | 129 ft | 0 kts | 187° |
| 2026-04-20 04:00 | 33.94184 | -118.40870 | 129 ft | 1 kts | 186° |
| 2026-04-20 04:00 | 33.94178 | -118.40870 | 129 ft | 0 kts | 176° |
| 2026-04-20 04:06 | 33.94176 | -118.40869 | 129 ft | 1 kts | 170° |
| 2026-04-20 04:06 | 33.94155 | -118.40863 | 130 ft | 5 kts | 166° |
| 2026-04-20 04:06 | 33.94132 | -118.40855 | 130 ft | 1 kts | 161° |
| 2026-04-20 04:07 | 33.94115 | -118.40847 | 131 ft | 2 kts | 161° |
| 2026-04-20 04:07 | 33.94067 | -118.40832 | 131 ft | 6 kts | 173° |
| 2026-04-20 04:07 | 33.94031 | -118.40827 | 132 ft | 3 kts | 174° |
| 2026-04-20 04:07 | 33.94014 | -118.40826 | 132 ft | 1 kts | 174° |
| 2026-04-20 04:08 | 33.94005 | -118.40824 | 133 ft | 0 kts | 175° |
| 2026-04-20 04:09 | 33.94001 | -118.40824 | 133 ft | 4 kts | 176° |
| 2026-04-20 04:09 | 33.93952 | -118.40819 | 133 ft | 7 kts | 175° |
| 2026-04-20 04:10 | 33.93887 | -118.40832 | 133 ft | 10 kts | 234° |
| 2026-04-20 04:10 | 33.93868 | -118.40924 | 133 ft | 12 kts | 262° |
| 2026-04-20 04:10 | 33.93858 | -118.41029 | 132 ft | 12 kts | 263° |
| 2026-04-20 04:10 | 33.93856 | -118.41145 | 132 ft | 14 kts | 295° |
| 2026-04-20 04:11 | 33.93905 | -118.41173 | 131 ft | 8 kts | 2° |
| 2026-04-20 04:11 | 33.94000 | -118.41183 | 130 ft | 15 kts | 353° |
| 2026-04-20 04:11 | 33.94110 | -118.41200 | 129 ft | 16 kts | 353° |
| 2026-04-20 04:11 | 33.94218 | -118.41218 | 128 ft | 14 kts | 353° |
| 2026-04-20 04:12 | 33.94312 | -118.41232 | 127 ft | 13 kts | 353° |
| 2026-04-20 04:12 | 33.94399 | -118.41245 | 126 ft | 11 kts | 355° |
| 2026-04-20 04:12 | 33.94510 | -118.41259 | 126 ft | 16 kts | 354° |
| 2026-04-20 04:12 | 33.94613 | -118.41273 | 126 ft | 13 kts | 353° |
| 2026-04-20 04:13 | 33.94698 | -118.41287 | 128 ft | 12 kts | 352° |
| 2026-04-20 04:13 | 33.94775 | -118.41285 | 129 ft | 8 kts | 26° |
| 2026-04-20 04:13 | 33.94804 | -118.41200 | 130 ft | 12 kts | 83° |
| 2026-04-20 04:13 | 33.94815 | -118.41090 | 130 ft | 13 kts | 83° |
| 2026-04-20 04:14 | 33.94825 | -118.40988 | 129 ft | 11 kts | 83° |
| 2026-04-20 04:14 | 33.94834 | -118.40904 | 130 ft | 9 kts | 82° |
| 2026-04-20 04:14 | 33.94842 | -118.40836 | 130 ft | 9 kts | 82° |
| 2026-04-20 04:14 | 33.94853 | -118.40738 | 128 ft | 11 kts | 82° |
| 2026-04-20 04:15 | 33.94864 | -118.40641 | 126 ft | 11 kts | 82° |
| 2026-04-20 04:15 | 33.94875 | -118.40550 | 126 ft | 10 kts | 82° |
| 2026-04-20 04:15 | 33.94882 | -118.40473 | 126 ft | 8 kts | 83° |
| 2026-04-20 04:15 | 33.94890 | -118.40399 | 124 ft | 8 kts | 83° |
| 2026-04-20 04:16 | 33.94896 | -118.40324 | 123 ft | 8 kts | 83° |
| 2026-04-20 04:16 | 33.94903 | -118.40259 | 123 ft | 7 kts | 83° |
| 2026-04-20 04:16 | 33.94908 | -118.40206 | 123 ft | 5 kts | 83° |
| 2026-04-20 04:16 | 33.94912 | -118.40162 | 123 ft | 5 kts | 83° |
| 2026-04-20 04:17 | 33.94917 | -118.40113 | 122 ft | 6 kts | 83° |
| 2026-04-20 04:17 | 33.94923 | -118.40052 | 121 ft | 8 kts | 83° |
| 2026-04-20 04:17 | 33.94928 | -118.39999 | 120 ft | 0 kts | 83° |
| 2026-04-20 04:17 | 33.94928 | -118.39997 | 120 ft | 0 kts | 83° |
| 2026-04-20 04:18 | 33.94931 | -118.39983 | 120 ft | 1 kts | 69° |
| 2026-04-20 04:18 | 33.94941 | -118.39964 | 120 ft | 5 kts | 56° |
| 2026-04-20 04:18 | 33.94967 | -118.39940 | 119 ft | 4 kts | 17° |
| 2026-04-20 04:18 | 33.95023 | -118.39938 | 119 ft | 11 kts | 330° |
| 2026-04-20 04:19 | 33.95038 | -118.39990 | 120 ft | 4 kts | 263° |
| 2026-04-20 04:19 | 33.95029 | -118.40081 | 121 ft | 34 kts | 263° |
| 2026-04-20 04:19 | 33.94967 | -118.40666 | 127 ft | 106 kts | 263° |
| 2026-04-20 04:19 | 33.94845 | -118.41839 | 127 ft | 173 kts | 263° |
| 2026-04-20 04:20 | 33.94668 | -118.43450 | 416 ft | 207 kts | 262° |
| 2026-04-20 04:20 | 33.94480 | -118.45177 | 1376 ft | 211 kts | 264° |
| 2026-04-20 04:20 | 33.94337 | -118.46928 | 2329 ft | 217 kts | 266° |
| 2026-04-20 04:20 | 33.94283 | -118.48776 | 3251 ft | 223 kts | 269° |
| 2026-04-20 04:21 | 33.94241 | -118.50641 | 4228 ft | 226 kts | 268° |
| 2026-04-20 04:21 | 33.94118 | -118.52610 | 4896 ft | 245 kts | 263° |
| 2026-04-20 04:21 | 33.93923 | -118.54824 | 5295 ft | 271 kts | 263° |
| 2026-04-20 04:21 | 33.93739 | -118.57106 | 5757 ft | 267 kts | 263° |
| 2026-04-20 04:22 | 33.93561 | -118.59362 | 6215 ft | 276 kts | 263° |
| 2026-04-20 04:22 | 33.93377 | -118.61703 | 6689 ft | 282 kts | 263° |
| 2026-04-20 04:22 | 33.93193 | -118.64041 | 7144 ft | 285 kts | 263° |
| 2026-04-20 04:22 | 33.93008 | -118.66419 | 7588 ft | 287 kts | 262° |
| 2026-04-20 04:23 | 33.92823 | -118.68819 | 8047 ft | 291 kts | 262° |
| 2026-04-20 04:23 | 33.92632 | -118.71276 | 8507 ft | 293 kts | 262° |
| 2026-04-20 04:23 | 33.92443 | -118.73710 | 8966 ft | 295 kts | 262° |
| 2026-04-20 04:23 | 33.92250 | -118.76179 | 9546 ft | 298 kts | 262° |
| 2026-04-20 04:24 | 33.92057 | -118.78655 | 10218 ft | 299 kts | 262° |
| 2026-04-20 04:24 | 33.91858 | -118.81178 | 10559 ft | 312 kts | 262° |
| 2026-04-20 04:24 | 33.91710 | -118.83832 | 10832 ft | 329 kts | 268° |
| 2026-04-20 04:24 | 33.91780 | -118.86644 | 11122 ft | 344 kts | 270° |
| 2026-04-20 04:25 | 33.91874 | -118.89597 | 11433 ft | 359 kts | 270° |
| 2026-04-20 04:25 | 33.91968 | -118.92635 | 11774 ft | 373 kts | 270° |
| 2026-04-20 04:25 | 33.92063 | -118.95815 | 12164 ft | 386 kts | 270° |
| 2026-04-20 04:25 | 33.92264 | -118.99064 | 12697 ft | 394 kts | 277° |
| 2026-04-20 04:26 | 33.92946 | -119.02268 | 13346 ft | 400 kts | 288° |
| 2026-04-20 04:26 | 33.94132 | -119.05321 | 14001 ft | 406 kts | 298° |
| 2026-04-20 04:26 | 33.95601 | -119.08217 | 14733 ft | 407 kts | 300° |
| 2026-04-20 04:26 | 33.97114 | -119.11137 | 15423 ft | 409 kts | 300° |
| 2026-04-20 04:27 | 33.98621 | -119.14050 | 16085 ft | 412 kts | 300° |
| 2026-04-20 04:27 | 34.00194 | -119.16910 | 16697 ft | 416 kts | 306° |
| 2026-04-20 04:27 | 34.02180 | -119.19507 | 17259 ft | 422 kts | 316° |
| 2026-04-20 04:27 | 34.04477 | -119.21674 | 17798 ft | 427 kts | 322° |
| 2026-04-20 04:28 | 34.06924 | -119.23771 | 18401 ft | 430 kts | 322° |
| 2026-04-20 04:28 | 34.09368 | -119.25860 | 18986 ft | 433 kts | 322° |
| 2026-04-20 04:28 | 34.11818 | -119.27959 | 19546 ft | 436 kts | 322° |
| 2026-04-20 04:28 | 34.14306 | -119.30093 | 20096 ft | 439 kts | 322° |
| 2026-04-20 04:29 | 34.16802 | -119.32240 | 20627 ft | 442 kts | 322° |
| 2026-04-20 04:29 | 34.19309 | -119.34397 | 21179 ft | 445 kts | 322° |
| 2026-04-20 04:29 | 34.21829 | -119.36569 | 21692 ft | 447 kts | 322° |
| 2026-04-20 04:29 | 34.24374 | -119.38765 | 22193 ft | 450 kts | 322° |
| 2026-04-20 04:30 | 34.26924 | -119.40967 | 22698 ft | 452 kts | 322° |
| 2026-04-20 04:30 | 34.29481 | -119.43178 | 23196 ft | 455 kts | 322° |
| 2026-04-20 04:30 | 34.32043 | -119.45394 | 23700 ft | 457 kts | 322° |
| 2026-04-20 04:30 | 34.34654 | -119.47655 | 24167 ft | 459 kts | 322° |
| 2026-04-20 04:31 | 34.37255 | -119.49908 | 24640 ft | 462 kts | 321° |
| 2026-04-20 04:31 | 34.39849 | -119.52201 | 25132 ft | 462 kts | 319° |
| 2026-04-20 04:31 | 34.42173 | -119.54823 | 25587 ft | 461 kts | 310° |
| 2026-04-20 04:31 | 34.44298 | -119.57759 | 26027 ft | 463 kts | 308° |
| 2026-04-20 04:32 | 34.46398 | -119.60733 | 26466 ft | 465 kts | 308° |
| 2026-04-20 04:32 | 34.48504 | -119.63722 | 26927 ft | 467 kts | 308° |
| 2026-04-20 04:32 | 34.50591 | -119.66688 | 27404 ft | 468 kts | 308° |
| 2026-04-20 04:32 | 34.52699 | -119.69684 | 27867 ft | 469 kts | 308° |
| 2026-04-20 04:33 | 34.54827 | -119.72712 | 28318 ft | 471 kts | 308° |
| 2026-04-20 04:33 | 34.56960 | -119.75748 | 28703 ft | 474 kts | 308° |
| 2026-04-20 04:33 | 34.59076 | -119.78763 | 29118 ft | 476 kts | 308° |
| 2026-04-20 04:33 | 34.61237 | -119.81845 | 29608 ft | 476 kts | 308° |
| 2026-04-20 04:34 | 34.63386 | -119.84911 | 29963 ft | 476 kts | 307° |
| 2026-04-20 04:34 | 34.65521 | -119.87961 | 29977 ft | 476 kts | 308° |
| 2026-04-20 04:34 | 34.69770 | -119.94037 | 29982 ft | 472 kts | 307° |
| 2026-04-20 04:35 | 34.74029 | -120.00139 | 29987 ft | 475 kts | 307° |
| 2026-04-20 04:35 | 34.78278 | -120.06235 | 29987 ft | 472 kts | 307° |
| 2026-04-20 04:36 | 34.84625 | -120.15364 | 29981 ft | 472 kts | 307° |
| 2026-04-20 04:37 | 34.88844 | -120.21447 | 29979 ft | 472 kts | 307° |
| 2026-04-20 04:37 | 34.93088 | -120.27575 | 29975 ft | 472 kts | 307° |
| 2026-04-20 04:38 | 34.97324 | -120.33704 | 29972 ft | 475 kts | 307° |
| 2026-04-20 04:38 | 35.01572 | -120.39860 | 29974 ft | 481 kts | 307° |
| 2026-04-20 04:39 | 35.05892 | -120.46131 | 29967 ft | 483 kts | 307° |
| 2026-04-20 04:39 | 35.10194 | -120.52386 | 29970 ft | 482 kts | 307° |
| 2026-04-20 04:40 | 35.14505 | -120.58668 | 30028 ft | 488 kts | 307° |
| 2026-04-20 04:40 | 35.16678 | -120.61837 | 30480 ft | 487 kts | 307° |
| 2026-04-20 04:40 | 35.18861 | -120.65025 | 30575 ft | 494 kts | 306° |
| 2026-04-20 04:41 | 35.23321 | -120.71550 | 30588 ft | 503 kts | 306° |
| 2026-04-20 04:41 | 35.27805 | -120.78118 | 30627 ft | 505 kts | 306° |
| 2026-04-20 04:41 | 35.30048 | -120.81406 | 31109 ft | 497 kts | 306° |
| 2026-04-20 04:42 | 35.32238 | -120.84618 | 31804 ft | 488 kts | 306° |
| 2026-04-20 04:42 | 35.34375 | -120.87758 | 31953 ft | 481 kts | 306° |
| 2026-04-20 04:42 | 35.36505 | -120.90890 | 31960 ft | 475 kts | 306° |
| 2026-04-20 04:43 | 35.40710 | -120.97086 | 31967 ft | 473 kts | 306° |
| 2026-04-20 04:43 | 35.44922 | -121.03304 | 31966 ft | 475 kts | 306° |
| 2026-04-20 04:44 | 35.49115 | -121.09496 | 31965 ft | 472 kts | 306° |
| 2026-04-20 04:44 | 35.53394 | -121.15646 | 31966 ft | 474 kts | 306° |
| 2026-04-20 04:45 | 35.57668 | -121.21787 | 31965 ft | 473 kts | 306° |
| 2026-04-20 04:45 | 35.61920 | -121.27914 | 31965 ft | 473 kts | 306° |
| 2026-04-20 04:46 | 35.66187 | -121.34077 | 31964 ft | 474 kts | 306° |
| 2026-04-20 04:46 | 35.70475 | -121.40283 | 31964 ft | 473 kts | 306° |
| 2026-04-20 04:47 | 35.74719 | -121.46437 | 31965 ft | 474 kts | 306° |
| 2026-04-20 04:47 | 35.78985 | -121.52634 | 31965 ft | 475 kts | 306° |
| 2026-04-20 04:48 | 35.83244 | -121.58835 | 31963 ft | 475 kts | 306° |
| 2026-04-20 04:48 | 35.87448 | -121.64962 | 31962 ft | 468 kts | 305° |
| 2026-04-20 04:49 | 35.91665 | -121.71124 | 31972 ft | 469 kts | 304° |
| 2026-04-20 04:49 | 35.95895 | -121.77317 | 31970 ft | 478 kts | 304° |
| 2026-04-20 04:50 | 36.00635 | -121.83128 | 31955 ft | 481 kts | 317° |
| 2026-04-20 04:50 | 36.06452 | -121.87277 | 31956 ft | 488 kts | 326° |
| 2026-04-20 04:51 | 36.12533 | -121.91117 | 31944 ft | 496 kts | 327° |
| 2026-04-20 04:51 | 36.18644 | -121.94955 | 31943 ft | 489 kts | 326° |
| 2026-04-20 04:52 | 36.24761 | -121.98802 | 31944 ft | 497 kts | 326° |
| 2026-04-20 04:52 | 36.30812 | -122.02598 | 31943 ft | 477 kts | 326° |
| 2026-04-20 04:53 | 36.36775 | -122.06356 | 31949 ft | 485 kts | 326° |
| 2026-04-20 04:53 | 36.42849 | -122.10190 | 31948 ft | 492 kts | 326° |
| 2026-04-20 04:54 | 36.48967 | -122.14050 | 31950 ft | 493 kts | 326° |
| 2026-04-20 04:54 | 36.55068 | -122.17907 | 31952 ft | 492 kts | 326° |
| 2026-04-20 04:55 | 36.61205 | -122.21796 | 31948 ft | 494 kts | 326° |
| 2026-04-20 04:55 | 36.67338 | -122.25687 | 31946 ft | 494 kts | 326° |
| 2026-04-20 04:56 | 36.73513 | -122.29613 | 31951 ft | 496 kts | 326° |
| 2026-04-20 04:56 | 36.79654 | -122.33524 | 31951 ft | 497 kts | 326° |
| 2026-04-20 04:57 | 36.85826 | -122.37463 | 31949 ft | 498 kts | 326° |
| 2026-04-20 04:57 | 36.91990 | -122.41402 | 31948 ft | 497 kts | 326° |
| 2026-04-20 04:58 | 36.98141 | -122.45341 | 31943 ft | 499 kts | 326° |
| 2026-04-20 04:58 | 37.04314 | -122.49300 | 31945 ft | 498 kts | 326° |
| 2026-04-20 04:59 | 37.10479 | -122.53263 | 31941 ft | 499 kts | 326° |
| 2026-04-20 04:59 | 37.16690 | -122.57263 | 31929 ft | 502 kts | 326° |
| 2026-04-20 05:00 | 37.22859 | -122.61242 | 31922 ft | 502 kts | 326° |
| 2026-04-20 05:00 | 37.29112 | -122.65285 | 31921 ft | 503 kts | 325° |
| 2026-04-20 05:01 | 37.35548 | -122.68729 | 31927 ft | 508 kts | 331° |
| 2026-04-20 05:01 | 37.42125 | -122.71996 | 31925 ft | 509 kts | 330° |
| 2026-04-20 05:02 | 37.48734 | -122.75291 | 31931 ft | 509 kts | 331° |
| 2026-04-20 05:02 | 37.55377 | -122.78615 | 31924 ft | 513 kts | 330° |
| 2026-04-20 05:03 | 37.61964 | -122.81915 | 31920 ft | 509 kts | 330° |
| 2026-04-20 05:03 | 37.68593 | -122.85250 | 31919 ft | 514 kts | 330° |
| 2026-04-20 05:04 | 37.75195 | -122.88573 | 31917 ft | 513 kts | 330° |
| 2026-04-20 05:04 | 37.81853 | -122.91936 | 31918 ft | 516 kts | 331° |
| 2026-04-20 05:05 | 37.88522 | -122.95307 | 31914 ft | 515 kts | 330° |
| 2026-04-20 05:05 | 37.91821 | -122.96973 | 31912 ft | 504 kts | 330° |
| 2026-04-20 05:05 | 37.95011 | -122.98585 | 31907 ft | 492 kts | 330° |
| 2026-04-20 05:06 | 38.01299 | -123.01777 | 31917 ft | 488 kts | 330° |
| 2026-04-20 05:06 | 38.07704 | -123.05046 | 31907 ft | 500 kts | 330° |
| 2026-04-20 05:07 | 38.14227 | -123.08376 | 31899 ft | 513 kts | 330° |
| 2026-04-20 05:07 | 38.20920 | -123.11804 | 31897 ft | 520 kts | 329° |
| 2026-04-20 05:08 | 38.27133 | -123.16224 | 31906 ft | 511 kts | 320° |
| 2026-04-20 05:08 | 38.33144 | -123.21014 | 31898 ft | 507 kts | 320° |
| 2026-04-20 05:09 | 38.39125 | -123.25797 | 31906 ft | 509 kts | 320° |
| 2026-04-20 05:09 | 38.45112 | -123.30593 | 31892 ft | 509 kts | 320° |
| 2026-04-20 05:10 | 38.51124 | -123.35420 | 31895 ft | 513 kts | 320° |
| 2026-04-20 05:10 | 38.57184 | -123.40292 | 31908 ft | 512 kts | 320° |
| 2026-04-20 05:11 | 38.63188 | -123.45129 | 31888 ft | 514 kts | 320° |
| 2026-04-20 05:11 | 38.69267 | -123.50037 | 31896 ft | 515 kts | 320° |
| 2026-04-20 05:12 | 38.75330 | -123.54942 | 31910 ft | 514 kts | 320° |
| 2026-04-20 05:12 | 38.81346 | -123.59816 | 31897 ft | 514 kts | 320° |
| 2026-04-20 05:13 | 38.87455 | -123.64781 | 31878 ft | 519 kts | 320° |
| 2026-04-20 05:13 | 38.93507 | -123.69704 | 31899 ft | 514 kts | 319° |
| 2026-04-20 05:14 | 38.99543 | -123.74600 | 31882 ft | 523 kts | 322° |
| 2026-04-20 05:14 | 39.06078 | -123.78780 | 31900 ft | 524 kts | 327° |
| 2026-04-20 05:15 | 39.12684 | -123.82835 | 31879 ft | 527 kts | 327° |
| 2026-04-20 05:15 | 39.19338 | -123.86934 | 31885 ft | 529 kts | 327° |
| 2026-04-20 05:16 | 39.25987 | -123.91042 | 31893 ft | 530 kts | 327° |
| 2026-04-20 05:16 | 39.32643 | -123.95165 | 31887 ft | 528 kts | 327° |
| 2026-04-20 05:17 | 39.39305 | -123.99305 | 31885 ft | 531 kts | 327° |
| 2026-04-20 05:17 | 39.45968 | -124.03454 | 31879 ft | 533 kts | 327° |
| 2026-04-20 05:18 | 39.52662 | -124.07632 | 31883 ft | 535 kts | 327° |
| 2026-04-20 05:18 | 39.59349 | -124.11813 | 31888 ft | 536 kts | 327° |
| 2026-04-20 05:19 | 39.66113 | -124.16052 | 31886 ft | 535 kts | 327° |
| 2026-04-20 05:19 | 39.72812 | -124.20261 | 31879 ft | 537 kts | 327° |
| 2026-04-20 05:20 | 39.79528 | -124.24489 | 31880 ft | 536 kts | 327° |
| 2026-04-20 05:20 | 39.86268 | -124.28741 | 31882 ft | 538 kts | 327° |
| 2026-04-20 05:21 | 39.93041 | -124.33025 | 31881 ft | 539 kts | 327° |
| 2026-04-20 05:21 | 39.99786 | -124.37297 | 31874 ft | 536 kts | 327° |
| 2026-04-20 05:22 | 40.06520 | -124.41576 | 31884 ft | 541 kts | 327° |
| 2026-04-20 05:22 | 40.13303 | -124.45892 | 31861 ft | 538 kts | 327° |
| 2026-04-20 05:23 | 40.20093 | -124.50227 | 31861 ft | 544 kts | 328° |
| 2026-04-20 05:23 | 40.26884 | -124.54566 | 31864 ft | 541 kts | 328° |
| 2026-04-20 05:24 | 40.33661 | -124.58910 | 31857 ft | 542 kts | 328° |
| 2026-04-20 05:24 | 40.40437 | -124.63263 | 31862 ft | 546 kts | 328° |
| 2026-04-20 05:25 | 40.47299 | -124.67678 | 31860 ft | 543 kts | 327° |
| 2026-04-20 05:25 | 40.54037 | -124.72025 | 31867 ft | 544 kts | 327° |
| 2026-04-20 05:26 | 40.60865 | -124.76444 | 31861 ft | 547 kts | 327° |
| 2026-04-20 05:26 | 40.67713 | -124.80881 | 31868 ft | 547 kts | 327° |
| 2026-04-20 05:27 | 40.74524 | -124.85307 | 31867 ft | 548 kts | 327° |
| 2026-04-20 05:27 | 40.81359 | -124.89756 | 31871 ft | 549 kts | 327° |
| 2026-04-20 05:28 | 40.88239 | -124.94246 | 31857 ft | 547 kts | 327° |
| 2026-04-20 05:28 | 40.95045 | -124.98698 | 31858 ft | 550 kts | 327° |
| 2026-04-20 05:29 | 41.01918 | -125.03205 | 31853 ft | 551 kts | 327° |
| 2026-04-20 05:29 | 41.08771 | -125.07708 | 31857 ft | 547 kts | 327° |
| 2026-04-20 05:30 | 41.15623 | -125.12224 | 31836 ft | 552 kts | 327° |
| 2026-04-20 05:30 | 41.22523 | -125.16779 | 31837 ft | 553 kts | 328° |
| 2026-04-20 05:31 | 41.29385 | -125.21322 | 31840 ft | 554 kts | 328° |
| 2026-04-20 05:31 | 41.36255 | -125.25878 | 31840 ft | 553 kts | 328° |
| 2026-04-20 05:32 | 41.43144 | -125.30460 | 31840 ft | 555 kts | 328° |
| 2026-04-20 05:32 | 41.50043 | -125.35058 | 31840 ft | 553 kts | 328° |
| 2026-04-20 05:33 | 41.56923 | -125.39656 | 31838 ft | 554 kts | 328° |
| 2026-04-20 05:33 | 41.63885 | -125.44320 | 31839 ft | 557 kts | 328° |
| 2026-04-20 05:34 | 41.70805 | -125.48965 | 31847 ft | 555 kts | 328° |
| 2026-04-20 05:34 | 41.81153 | -125.55936 | 31854 ft | 559 kts | 329° |
| 2026-04-20 05:35 | 41.88066 | -125.60606 | 31843 ft | 558 kts | 329° |
| 2026-04-20 05:35 | 41.95034 | -125.65324 | 31854 ft | 560 kts | 328° |
| 2026-04-20 05:36 | 42.00798 | -125.69235 | 31848 ft | 557 kts | 328° |
| 2026-04-20 05:36 | 42.08941 | -125.74777 | 31851 ft | 561 kts | 328° |
| 2026-04-20 05:37 | 42.15860 | -125.79496 | 31842 ft | 558 kts | 328° |
| 2026-04-20 05:37 | 42.22819 | -125.84256 | 31827 ft | 560 kts | 328° |
| 2026-04-20 05:38 | 42.29779 | -125.89028 | 31824 ft | 559 kts | 328° |
| 2026-04-20 05:38 | 42.36698 | -125.93784 | 31860 ft | 560 kts | 329° |
| 2026-04-20 05:39 | 42.43642 | -125.98567 | 31853 ft | 558 kts | 329° |
| 2026-04-20 05:39 | 42.50621 | -126.03390 | 31853 ft | 561 kts | 329° |
| 2026-04-20 05:40 | 42.57594 | -126.08218 | 31840 ft | 559 kts | 329° |
| 2026-04-20 05:40 | 42.64571 | -126.13062 | 31849 ft | 562 kts | 329° |
| 2026-04-20 05:41 | 42.71291 | -126.18192 | 31859 ft | 554 kts | 319° |
| 2026-04-20 05:41 | 42.77156 | -126.24985 | 31841 ft | 552 kts | 312° |
| 2026-04-20 05:42 | 42.82793 | -126.31983 | 31850 ft | 548 kts | 312° |
| 2026-04-20 05:42 | 42.88426 | -126.39025 | 31852 ft | 552 kts | 312° |
| 2026-04-20 05:43 | 42.94106 | -126.46156 | 31848 ft | 551 kts | 313° |
| 2026-04-20 05:43 | 42.99798 | -126.53329 | 31856 ft | 552 kts | 313° |
| 2026-04-20 05:44 | 43.05402 | -126.60413 | 31854 ft | 551 kts | 313° |
| 2026-04-20 05:44 | 43.11090 | -126.67626 | 31848 ft | 555 kts | 312° |
| 2026-04-20 05:45 | 43.16698 | -126.74757 | 31831 ft | 553 kts | 312° |
| 2026-04-20 05:45 | 43.22337 | -126.81947 | 31840 ft | 555 kts | 312° |
| 2026-04-20 05:46 | 43.28019 | -126.89215 | 31843 ft | 558 kts | 313° |
| 2026-04-20 05:46 | 43.33638 | -126.96416 | 31841 ft | 553 kts | 312° |
| 2026-04-20 05:47 | 43.39292 | -127.03687 | 31843 ft | 560 kts | 313° |
| 2026-04-20 05:47 | 43.44954 | -127.10983 | 31845 ft | 557 kts | 313° |
| 2026-04-20 05:48 | 43.50626 | -127.18315 | 31846 ft | 560 kts | 313° |
| 2026-04-20 05:48 | 43.56242 | -127.25593 | 31865 ft | 556 kts | 313° |
| 2026-04-20 05:49 | 43.61895 | -127.32939 | 31892 ft | 558 kts | 313° |
| 2026-04-20 05:49 | 43.67525 | -127.40276 | 31875 ft | 559 kts | 314° |
| 2026-04-20 05:50 | 43.73199 | -127.47689 | 31852 ft | 557 kts | 314° |
| 2026-04-20 05:50 | 43.78870 | -127.55119 | 31887 ft | 559 kts | 314° |
| 2026-04-20 05:51 | 43.84543 | -127.62572 | 31892 ft | 560 kts | 315° |
| 2026-04-20 05:51 | 43.90164 | -127.69976 | 31894 ft | 559 kts | 314° |
| 2026-04-20 05:52 | 43.95821 | -127.77450 | 31869 ft | 561 kts | 314° |
| 2026-04-20 05:52 | 44.01458 | -127.84917 | 31891 ft | 560 kts | 314° |
| 2026-04-20 05:53 | 44.07076 | -127.92380 | 31907 ft | 561 kts | 314° |
| 2026-04-20 05:53 | 44.12698 | -127.99867 | 31877 ft | 559 kts | 314° |
| 2026-04-20 05:54 | 44.18297 | -128.07346 | 31862 ft | 559 kts | 314° |
| 2026-04-20 05:54 | 44.23908 | -128.14861 | 31868 ft | 558 kts | 314° |
| 2026-04-20 05:55 | 44.29491 | -128.22360 | 31863 ft | 559 kts | 315° |
| 2026-04-20 05:55 | 44.35080 | -128.29887 | 31881 ft | 556 kts | 315° |
| 2026-04-20 05:56 | 44.40633 | -128.37387 | 31880 ft | 556 kts | 315° |
| 2026-04-20 05:56 | 44.46160 | -128.44873 | 31884 ft | 555 kts | 315° |
| 2026-04-20 05:57 | 44.51723 | -128.52429 | 31868 ft | 554 kts | 315° |
| 2026-04-20 05:57 | 44.57209 | -128.59901 | 31870 ft | 555 kts | 315° |
| 2026-04-20 05:58 | 44.62765 | -128.67491 | 31869 ft | 554 kts | 315° |
| 2026-04-20 05:58 | 44.68248 | -128.74999 | 31863 ft | 553 kts | 315° |
| 2026-04-20 05:59 | 44.73734 | -128.82533 | 31867 ft | 553 kts | 315° |
| 2026-04-20 05:59 | 44.79212 | -128.90079 | 31857 ft | 553 kts | 315° |
| 2026-04-20 06:00 | 44.84732 | -128.97704 | 31861 ft | 553 kts | 315° |
| 2026-04-20 06:00 | 44.90171 | -129.05237 | 31870 ft | 551 kts | 315° |
| 2026-04-20 06:01 | 44.95629 | -129.12819 | 31869 ft | 552 kts | 315° |
| 2026-04-20 06:01 | 45.01087 | -129.20421 | 31889 ft | 552 kts | 315° |
| 2026-04-20 06:02 | 45.06551 | -129.28053 | 31898 ft | 550 kts | 315° |
| 2026-04-20 06:02 | 45.12004 | -129.35692 | 31884 ft | 551 kts | 315° |
| 2026-04-20 06:03 | 45.16521 | -129.42035 | 31941 ft | 550 kts | 316° |
| 2026-04-20 06:03 | 45.22865 | -129.50972 | 31912 ft | 549 kts | 316° |
| 2026-04-20 06:04 | 45.28260 | -129.58594 | 31938 ft | 549 kts | 316° |
| 2026-04-20 06:04 | 45.33677 | -129.66270 | 31902 ft | 549 kts | 315° |
| 2026-04-20 06:05 | 45.39095 | -129.73969 | 31921 ft | 549 kts | 315° |
| 2026-04-20 06:05 | 45.43600 | -129.80386 | 31941 ft | 549 kts | 315° |
| 2026-04-20 06:06 | 45.49896 | -129.89383 | 31964 ft | 549 kts | 316° |
| 2026-04-20 06:06 | 45.55264 | -129.97076 | 31943 ft | 548 kts | 316° |
| 2026-04-20 06:07 | 45.60643 | -130.04807 | 31940 ft | 548 kts | 316° |
| 2026-04-20 06:07 | 45.65991 | -130.12517 | 31928 ft | 547 kts | 316° |
| 2026-04-20 06:08 | 45.71363 | -130.20283 | 31919 ft | 547 kts | 316° |
| 2026-04-20 06:08 | 45.76707 | -130.28030 | 31908 ft | 547 kts | 316° |
| 2026-04-20 06:09 | 45.82048 | -130.35799 | 31924 ft | 547 kts | 316° |
| 2026-04-20 06:09 | 45.86478 | -130.42256 | 31936 ft | 546 kts | 316° |
| 2026-04-20 06:10 | 45.92697 | -130.51350 | 31926 ft | 545 kts | 316° |
| 2026-04-20 06:10 | 45.98016 | -130.59151 | 31945 ft | 547 kts | 316° |
| 2026-04-20 06:11 | 46.03321 | -130.66956 | 31936 ft | 547 kts | 316° |
| 2026-04-20 06:11 | 46.07771 | -130.73521 | 31921 ft | 545 kts | 316° |
| 2026-04-20 06:12 | 46.13916 | -130.82613 | 31915 ft | 546 kts | 316° |
| 2026-04-20 06:12 | 46.19213 | -130.90472 | 31904 ft | 545 kts | 316° |
| 2026-04-20 06:13 | 46.24486 | -130.98323 | 31907 ft | 544 kts | 316° |
| 2026-04-20 06:13 | 46.29735 | -131.06158 | 31922 ft | 541 kts | 316° |
| 2026-04-20 06:14 | 46.34975 | -131.14004 | 31918 ft | 543 kts | 316° |
| 2026-04-20 06:14 | 46.40189 | -131.21834 | 31918 ft | 539 kts | 317° |
| 2026-04-20 06:15 | 46.45384 | -131.29658 | 31924 ft | 540 kts | 317° |
| 2026-04-20 06:15 | 46.50579 | -131.37506 | 31922 ft | 539 kts | 317° |
| 2026-04-20 06:16 | 46.55727 | -131.45305 | 31932 ft | 535 kts | 317° |
| 2026-04-20 06:16 | 46.60892 | -131.53152 | 31929 ft | 537 kts | 317° |
| 2026-04-20 06:17 | 46.66026 | -131.60976 | 31933 ft | 533 kts | 317° |
| 2026-04-20 06:17 | 46.71136 | -131.68785 | 31924 ft | 534 kts | 317° |
| 2026-04-20 06:18 | 46.76221 | -131.76579 | 31923 ft | 533 kts | 317° |
| 2026-04-20 06:18 | 46.81327 | -131.84430 | 31924 ft | 533 kts | 317° |
| 2026-04-20 06:19 | 46.86379 | -131.92218 | 31931 ft | 531 kts | 317° |
| 2026-04-20 06:19 | 46.91443 | -132.00050 | 31928 ft | 531 kts | 317° |
| 2026-04-20 06:20 | 46.96496 | -132.07886 | 31928 ft | 531 kts | 317° |
| 2026-04-20 06:20 | 47.01580 | -132.15710 | 31921 ft | 527 kts | 321° |
| 2026-04-20 06:21 | 47.06953 | -132.22942 | 31928 ft | 526 kts | 322° |
| 2026-04-20 06:21 | 47.12343 | -132.30183 | 31925 ft | 523 kts | 322° |
| 2026-04-20 06:22 | 47.17713 | -132.37454 | 31929 ft | 523 kts | 322° |
| 2026-04-20 06:22 | 47.23035 | -132.44702 | 31929 ft | 521 kts | 322° |
| 2026-04-20 06:23 | 47.28330 | -132.51944 | 31937 ft | 521 kts | 322° |
| 2026-04-20 06:23 | 47.33608 | -132.59192 | 31940 ft | 521 kts | 322° |
| 2026-04-20 06:24 | 47.38932 | -132.66527 | 31931 ft | 520 kts | 322° |
| 2026-04-20 06:24 | 47.44210 | -132.73820 | 31931 ft | 520 kts | 322° |
| 2026-04-20 06:25 | 47.49466 | -132.81110 | 31929 ft | 516 kts | 322° |
| 2026-04-20 06:25 | 47.54687 | -132.88368 | 31933 ft | 517 kts | 322° |
| 2026-04-20 06:26 | 47.59883 | -132.95615 | 31933 ft | 515 kts | 322° |
| 2026-04-20 06:26 | 47.65119 | -133.02936 | 31932 ft | 515 kts | 322° |
| 2026-04-20 06:27 | 47.69405 | -133.08949 | 31940 ft | 510 kts | 322° |
| 2026-04-20 06:27 | 47.75420 | -133.17403 | 31939 ft | 515 kts | 322° |
| 2026-04-20 06:28 | 47.80606 | -133.24721 | 31942 ft | 512 kts | 322° |
| 2026-04-20 06:28 | 47.85760 | -133.32013 | 31937 ft | 510 kts | 322° |
| 2026-04-20 06:29 | 47.90859 | -133.39249 | 31938 ft | 508 kts | 322° |
| 2026-04-20 06:29 | 47.95967 | -133.46513 | 31945 ft | 511 kts | 322° |
| 2026-04-20 06:30 | 48.00242 | -133.52614 | 31944 ft | 508 kts | 322° |
| 2026-04-20 06:30 | 48.06200 | -133.61137 | 31944 ft | 508 kts | 322° |
| 2026-04-20 06:31 | 48.11270 | -133.68414 | 31942 ft | 508 kts | 321° |
| 2026-04-20 06:31 | 48.16352 | -133.75729 | 31942 ft | 507 kts | 321° |
| 2026-04-20 06:32 | 48.21443 | -133.83079 | 31935 ft | 505 kts | 321° |
| 2026-04-20 06:32 | 48.26512 | -133.90416 | 31953 ft | 507 kts | 321° |
| 2026-04-20 06:33 | 48.30721 | -133.96527 | 31946 ft | 506 kts | 321° |
| 2026-04-20 06:33 | 48.36611 | -134.05103 | 31948 ft | 504 kts | 321° |
| 2026-04-20 06:34 | 48.41627 | -134.12428 | 31953 ft | 503 kts | 321° |
| 2026-04-20 06:35 | 48.49104 | -134.23389 | 31954 ft | 502 kts | 321° |
| 2026-04-20 06:35 | 48.53260 | -134.29500 | 31952 ft | 502 kts | 321° |
| 2026-04-20 06:36 | 48.59072 | -134.38072 | 31963 ft | 502 kts | 320° |
| 2026-04-20 06:36 | 48.64051 | -134.45441 | 31962 ft | 499 kts | 320° |
| 2026-04-20 06:37 | 48.68170 | -134.51549 | 31968 ft | 500 kts | 320° |
| 2026-04-20 06:37 | 48.73109 | -134.58897 | 31971 ft | 498 kts | 320° |
| 2026-04-20 06:38 | 48.78816 | -134.67415 | 31982 ft | 497 kts | 319° |
| 2026-04-20 06:38 | 48.83784 | -134.74850 | 31985 ft | 497 kts | 319° |
| 2026-04-20 06:39 | 48.88683 | -134.82205 | 31984 ft | 497 kts | 319° |
| 2026-04-20 06:39 | 48.93578 | -134.89577 | 31986 ft | 494 kts | 319° |
| 2026-04-20 06:40 | 48.98424 | -134.96895 | 32006 ft | 492 kts | 319° |
| 2026-04-20 06:40 | 49.03275 | -135.04240 | 32001 ft | 493 kts | 319° |
| 2026-04-20 06:41 | 49.08102 | -135.11574 | 32007 ft | 492 kts | 319° |
| 2026-04-20 06:41 | 49.12933 | -135.18933 | 32012 ft | 492 kts | 319° |
| 2026-04-20 06:42 | 49.17768 | -135.26318 | 32015 ft | 489 kts | 318° |
| 2026-04-20 06:42 | 49.22554 | -135.33653 | 32013 ft | 489 kts | 318° |
| 2026-04-20 06:43 | 49.26521 | -135.39748 | 32016 ft | 488 kts | 318° |
| 2026-04-20 06:43 | 49.32107 | -135.48354 | 32014 ft | 488 kts | 318° |
| 2026-04-20 06:44 | 49.36860 | -135.55701 | 32023 ft | 487 kts | 318° |
| 2026-04-20 06:44 | 49.41617 | -135.63075 | 32026 ft | 485 kts | 318° |
| 2026-04-20 06:45 | 49.46353 | -135.70438 | 32020 ft | 485 kts | 317° |
| 2026-04-20 06:45 | 49.51088 | -135.77821 | 32027 ft | 485 kts | 317° |
| 2026-04-20 06:46 | 49.54998 | -135.83936 | 32029 ft | 485 kts | 317° |
| 2026-04-20 06:46 | 49.59742 | -135.91373 | 32024 ft | 484 kts | 317° |
| 2026-04-20 06:47 | 49.64411 | -135.98712 | 32032 ft | 484 kts | 317° |
| 2026-04-20 06:47 | 49.69897 | -136.07367 | 32033 ft | 482 kts | 317° |
| 2026-04-20 06:48 | 49.73789 | -136.13522 | 32034 ft | 483 kts | 317° |
| 2026-04-20 06:48 | 49.78454 | -136.20923 | 32045 ft | 482 kts | 317° |
| 2026-04-20 06:49 | 49.83139 | -136.28375 | 32046 ft | 481 kts | 317° |
| 2026-04-20 06:49 | 49.87777 | -136.35776 | 32056 ft | 481 kts | 317° |
| 2026-04-20 06:50 | 49.92421 | -136.43207 | 32061 ft | 481 kts | 317° |
| 2026-04-20 06:50 | 49.97830 | -136.51891 | 32058 ft | 480 kts | 317° |
| 2026-04-20 06:51 | 50.02470 | -136.59363 | 32069 ft | 480 kts | 317° |
| 2026-04-20 06:51 | 50.07070 | -136.66794 | 32070 ft | 480 kts | 316° |
| 2026-04-20 06:52 | 50.11697 | -136.74291 | 32085 ft | 479 kts | 316° |
| 2026-04-20 06:52 | 50.15529 | -136.80515 | 32087 ft | 478 kts | 316° |
| 2026-04-20 06:53 | 50.20883 | -136.89238 | 32090 ft | 478 kts | 316° |
| 2026-04-20 06:53 | 50.25460 | -136.96719 | 32094 ft | 477 kts | 316° |
| 2026-04-20 06:54 | 50.30005 | -137.04170 | 32099 ft | 478 kts | 316° |
| 2026-04-20 06:54 | 50.33819 | -137.10440 | 32101 ft | 477 kts | 316° |
| 2026-04-20 06:55 | 50.39128 | -137.19194 | 32104 ft | 476 kts | 316° |
| 2026-04-20 06:55 | 50.43653 | -137.26678 | 32099 ft | 476 kts | 316° |
| 2026-04-20 06:56 | 50.47430 | -137.32944 | 32106 ft | 474 kts | 316° |
| 2026-04-20 06:56 | 50.51964 | -137.40485 | 32107 ft | 475 kts | 315° |
| 2026-04-20 06:57 | 50.57205 | -137.49229 | 32112 ft | 474 kts | 315° |
| 2026-04-20 06:57 | 50.61744 | -137.56827 | 32112 ft | 474 kts | 315° |
| 2026-04-20 06:58 | 50.66231 | -137.64362 | 32116 ft | 473 kts | 315° |
| 2026-04-20 06:58 | 50.70719 | -137.71919 | 32119 ft | 472 kts | 314° |
| 2026-04-20 06:59 | 50.75174 | -137.79445 | 32123 ft | 472 kts | 314° |
| 2026-04-20 06:59 | 50.79637 | -137.87007 | 32121 ft | 472 kts | 314° |
| 2026-04-20 07:00 | 50.83356 | -137.93324 | 32124 ft | 472 kts | 314° |
| 2026-04-20 07:00 | 50.88559 | -138.02190 | 32129 ft | 471 kts | 314° |
| 2026-04-20 07:01 | 50.92997 | -138.09776 | 32137 ft | 470 kts | 313° |
| 2026-04-20 07:01 | 50.97443 | -138.17400 | 32139 ft | 470 kts | 313° |
| 2026-04-20 07:02 | 51.01869 | -138.25014 | 32142 ft | 471 kts | 313° |
| 2026-04-20 07:02 | 51.06287 | -138.32634 | 32143 ft | 469 kts | 313° |
| 2026-04-20 07:03 | 51.10699 | -138.40271 | 32148 ft | 469 kts | 313° |
| 2026-04-20 07:03 | 51.15084 | -138.47882 | 32151 ft | 468 kts | 313° |
| 2026-04-20 07:04 | 51.19466 | -138.55510 | 32156 ft | 469 kts | 313° |
| 2026-04-20 07:04 | 51.23165 | -138.61968 | 32150 ft | 467 kts | 313° |
| 2026-04-20 07:05 | 51.28291 | -138.70943 | 32166 ft | 468 kts | 312° |
| 2026-04-20 07:05 | 51.31923 | -138.77322 | 32163 ft | 465 kts | 312° |
| 2026-04-20 07:06 | 51.36247 | -138.84940 | 32172 ft | 466 kts | 312° |
| 2026-04-20 07:06 | 51.40629 | -138.92682 | 32162 ft | 465 kts | 312° |
| 2026-04-20 07:07 | 51.45662 | -139.01604 | 32162 ft | 463 kts | 311° |
| 2026-04-20 07:07 | 51.49249 | -139.07980 | 32161 ft | 464 kts | 311° |
| 2026-04-20 07:08 | 51.54279 | -139.16952 | 32166 ft | 463 kts | 311° |
| 2026-04-20 07:08 | 51.57843 | -139.23328 | 32171 ft | 463 kts | 311° |
| 2026-04-20 07:09 | 51.62835 | -139.32286 | 32167 ft | 464 kts | 311° |
| 2026-04-20 07:09 | 51.66428 | -139.38753 | 32168 ft | 462 kts | 311° |
| 2026-04-20 07:10 | 51.70682 | -139.46433 | 32169 ft | 463 kts | 311° |
| 2026-04-20 07:10 | 51.75672 | -139.55469 | 32167 ft | 461 kts | 310° |
| 2026-04-20 07:11 | 51.79217 | -139.61909 | 32171 ft | 464 kts | 310° |
| 2026-04-20 07:11 | 51.84177 | -139.70949 | 32172 ft | 462 kts | 309° |
| 2026-04-20 07:12 | 51.87740 | -139.77460 | 32173 ft | 464 kts | 309° |
| 2026-04-20 07:12 | 51.92678 | -139.86514 | 32173 ft | 462 kts | 309° |
| 2026-04-20 07:13 | 51.96209 | -139.93008 | 32175 ft | 462 kts | 309° |
| 2026-04-20 07:13 | 52.01065 | -140.02292 | 32181 ft | 461 kts | 306° |
| 2026-04-20 07:14 | 52.04367 | -140.09079 | 32174 ft | 460 kts | 306° |
| 2026-04-20 07:14 | 52.08338 | -140.17288 | 32179 ft | 461 kts | 306° |
| 2026-04-20 07:15 | 52.12935 | -140.26837 | 32176 ft | 459 kts | 306° |
| 2026-04-20 07:15 | 52.16204 | -140.33658 | 32180 ft | 461 kts | 306° |
| 2026-04-20 07:16 | 52.20120 | -140.41853 | 32183 ft | 460 kts | 306° |
| 2026-04-20 07:16 | 52.24048 | -140.50102 | 32191 ft | 460 kts | 306° |
| 2026-04-20 07:17 | 52.28587 | -140.59668 | 32181 ft | 459 kts | 305° |
| 2026-04-20 07:17 | 52.31829 | -140.66525 | 32194 ft | 458 kts | 304° |
| 2026-04-20 07:18 | 52.35719 | -140.74773 | 32197 ft | 458 kts | 304° |
| 2026-04-20 07:18 | 52.39584 | -140.82997 | 32197 ft | 456 kts | 304° |
| 2026-04-20 07:19 | 52.43442 | -140.91234 | 32192 ft | 458 kts | 304° |
| 2026-04-20 07:19 | 52.47300 | -140.99495 | 32200 ft | 456 kts | 304° |
| 2026-04-20 07:20 | 52.51143 | -141.07753 | 32198 ft | 456 kts | 304° |
| 2026-04-20 07:20 | 52.54962 | -141.15984 | 32194 ft | 456 kts | 303° |
| 2026-04-20 07:21 | 52.58795 | -141.24274 | 32188 ft | 455 kts | 303° |
| 2026-04-20 07:21 | 52.62635 | -141.32605 | 32191 ft | 456 kts | 303° |
| 2026-04-20 07:22 | 52.66432 | -141.40869 | 32183 ft | 455 kts | 303° |
| 2026-04-20 07:22 | 52.70860 | -141.50543 | 32187 ft | 454 kts | 303° |
| 2026-04-20 07:23 | 52.74022 | -141.57472 | 32188 ft | 453 kts | 303° |
| 2026-04-20 07:23 | 52.77803 | -141.65784 | 32190 ft | 453 kts | 302° |
| 2026-04-20 07:24 | 52.81565 | -141.74081 | 32198 ft | 451 kts | 302° |
| 2026-04-20 07:24 | 52.85304 | -141.82353 | 32196 ft | 451 kts | 302° |
| 2026-04-20 07:25 | 52.89051 | -141.90669 | 32197 ft | 450 kts | 302° |
| 2026-04-20 07:25 | 52.92777 | -141.98967 | 32191 ft | 449 kts | 302° |
| 2026-04-20 07:26 | 52.96510 | -142.07310 | 32195 ft | 450 kts | 302° |
| 2026-04-20 07:26 | 53.00205 | -142.15591 | 32198 ft | 447 kts | 302° |
| 2026-04-20 07:27 | 53.03899 | -142.23901 | 32188 ft | 447 kts | 302° |
| 2026-04-20 07:27 | 53.07589 | -142.32227 | 32190 ft | 447 kts | 302° |
| 2026-04-20 07:28 | 53.11259 | -142.40536 | 32186 ft | 445 kts | 302° |
| 2026-04-20 07:28 | 53.14917 | -142.48845 | 32190 ft | 446 kts | 302° |
| 2026-04-20 07:29 | 53.18571 | -142.57170 | 32181 ft | 445 kts | 302° |
| 2026-04-20 07:29 | 53.22207 | -142.65483 | 32181 ft | 444 kts | 301° |
| 2026-04-20 07:30 | 53.25832 | -142.73799 | 32191 ft | 443 kts | 301° |
| 2026-04-20 07:30 | 53.29438 | -142.82098 | 32186 ft | 442 kts | 301° |
| 2026-04-20 07:31 | 53.33035 | -142.90402 | 32191 ft | 442 kts | 301° |
| 2026-04-20 07:31 | 53.36610 | -142.98686 | 32187 ft | 442 kts | 301° |
| 2026-04-20 07:32 | 53.40198 | -143.07024 | 32187 ft | 441 kts | 300° |
| 2026-04-20 07:32 | 53.43763 | -143.15338 | 32184 ft | 442 kts | 300° |
| 2026-04-20 07:33 | 53.47344 | -143.23717 | 32187 ft | 441 kts | 300° |
| 2026-04-20 07:33 | 53.50926 | -143.32126 | 32180 ft | 441 kts | 300° |
| 2026-04-20 07:34 | 53.54501 | -143.40546 | 32192 ft | 440 kts | 300° |
| 2026-04-20 07:34 | 53.58069 | -143.48978 | 32184 ft | 440 kts | 300° |
| 2026-04-20 07:35 | 53.63384 | -143.61591 | 32178 ft | 439 kts | 300° |
| 2026-04-20 07:35 | 53.66914 | -143.70001 | 32191 ft | 438 kts | 299° |
| 2026-04-20 07:36 | 53.70413 | -143.78368 | 32187 ft | 436 kts | 299° |
| 2026-04-20 07:36 | 53.73900 | -143.86734 | 32186 ft | 437 kts | 299° |
| 2026-04-20 07:37 | 53.77362 | -143.95065 | 32185 ft | 435 kts | 298° |
| 2026-04-20 07:37 | 53.80844 | -144.03476 | 32188 ft | 436 kts | 298° |
| 2026-04-20 07:38 | 53.84282 | -144.11806 | 32178 ft | 435 kts | 298° |
| 2026-04-20 07:38 | 53.87734 | -144.20200 | 32175 ft | 435 kts | 298° |
| 2026-04-20 07:39 | 53.91184 | -144.28615 | 32181 ft | 435 kts | 298° |
| 2026-04-20 07:39 | 53.94618 | -144.37016 | 32172 ft | 432 kts | 298° |
| 2026-04-20 07:40 | 53.98025 | -144.45386 | 32169 ft | 432 kts | 298° |
| 2026-04-20 07:40 | 54.01421 | -144.53754 | 32175 ft | 433 kts | 298° |
| 2026-04-20 07:41 | 54.04842 | -144.62212 | 32180 ft | 432 kts | 298° |
| 2026-04-20 07:41 | 54.08206 | -144.70557 | 32194 ft | 432 kts | 297° |
| 2026-04-20 07:42 | 54.11613 | -144.79038 | 32182 ft | 432 kts | 297° |
| 2026-04-20 07:42 | 54.14980 | -144.87442 | 32186 ft | 430 kts | 297° |
| 2026-04-20 07:43 | 54.18336 | -144.95853 | 32179 ft | 430 kts | 297° |
| 2026-04-20 07:43 | 54.21710 | -145.04335 | 32188 ft | 429 kts | 297° |
| 2026-04-20 07:44 | 54.25052 | -145.12767 | 32177 ft | 429 kts | 297° |
| 2026-04-20 07:44 | 54.28400 | -145.21242 | 32187 ft | 428 kts | 297° |
| 2026-04-20 07:45 | 54.31711 | -145.29652 | 32185 ft | 430 kts | 297° |
| 2026-04-20 07:45 | 54.35030 | -145.38112 | 32180 ft | 429 kts | 297° |
| 2026-04-20 07:46 | 54.38340 | -145.46576 | 32183 ft | 428 kts | 297° |
| 2026-04-20 07:46 | 54.41655 | -145.55083 | 32181 ft | 428 kts | 297° |
| 2026-04-20 07:47 | 54.44952 | -145.63568 | 32189 ft | 427 kts | 297° |
| 2026-04-20 07:47 | 54.48239 | -145.72063 | 32194 ft | 427 kts | 296° |
| 2026-04-20 07:48 | 54.51515 | -145.80554 | 32198 ft | 425 kts | 297° |
| 2026-04-20 07:48 | 54.54755 | -145.88983 | 32202 ft | 425 kts | 296° |
| 2026-04-20 07:49 | 54.58011 | -145.97482 | 32193 ft | 425 kts | 296° |
| 2026-04-20 07:49 | 54.61273 | -146.06026 | 32185 ft | 424 kts | 296° |
| 2026-04-20 07:50 | 54.64512 | -146.14540 | 32190 ft | 425 kts | 296° |
| 2026-04-20 07:50 | 54.67767 | -146.23125 | 32182 ft | 427 kts | 296° |
| 2026-04-20 07:51 | 54.70988 | -146.31647 | 32194 ft | 424 kts | 296° |
| 2026-04-20 07:51 | 54.74202 | -146.40184 | 32191 ft | 427 kts | 296° |
| 2026-04-20 07:52 | 54.77440 | -146.48810 | 32181 ft | 424 kts | 296° |
| 2026-04-20 07:52 | 54.80633 | -146.57349 | 32180 ft | 426 kts | 296° |
| 2026-04-20 07:53 | 54.83849 | -146.65979 | 32177 ft | 425 kts | 296° |
| 2026-04-20 07:53 | 54.87032 | -146.74551 | 32192 ft | 426 kts | 296° |
| 2026-04-20 07:54 | 54.90241 | -146.83220 | 32190 ft | 424 kts | 295° |
| 2026-04-20 07:54 | 54.93418 | -146.91835 | 32180 ft | 425 kts | 296° |
| 2026-04-20 07:55 | 54.96610 | -147.00520 | 32176 ft | 425 kts | 295° |
| 2026-04-20 07:55 | 54.99798 | -147.09227 | 32179 ft | 425 kts | 296° |
| 2026-04-20 07:56 | 55.02951 | -147.17866 | 32172 ft | 423 kts | 296° |
| 2026-04-20 07:56 | 55.06087 | -147.26489 | 32168 ft | 423 kts | 295° |
| 2026-04-20 07:57 | 55.09240 | -147.35194 | 32167 ft | 424 kts | 296° |
| 2026-04-20 07:57 | 55.12369 | -147.43860 | 32161 ft | 425 kts | 295° |
| 2026-04-20 07:58 | 55.15529 | -147.52643 | 32156 ft | 423 kts | 295° |
| 2026-04-20 07:58 | 55.18675 | -147.61418 | 32151 ft | 423 kts | 296° |
| 2026-04-20 07:59 | 55.21802 | -147.70171 | 32167 ft | 422 kts | 295° |
| 2026-04-20 07:59 | 55.24893 | -147.78853 | 32165 ft | 419 kts | 295° |
| 2026-04-20 08:00 | 55.26440 | -147.83215 | 32152 ft | 423 kts | 295° |